Time;durP1;ratioP1;P1;durP2;ratioP2;P2;SDS_P1;SDS_P2;PMS_P1;PMS_P2;Temp;Humidity;BMP_temperature;BMP_pressure;BME280_temperature;BME280_humidity;BME280_pressure;Samples;Min_cycle;Max_cycle;Signal;HPM_P1;HPM_P2
2021/05/14 00:00:24;;;;;;;33.38;20.83;;;;;;;14.52;82.27;98136.44;5119164;28;20100;-54
2021/05/14 00:03:10;;;;;;;30.70;21.70;;;;;;;14.55;82.54;98154.66;5118817;28;20134;-54
2021/05/14 00:05:36;;;;;;;30.40;20.85;;;;;;;14.53;82.45;98159.19;5117875;28;20410;-53
2021/05/14 00:08:03;;;;;;;28.52;20.58;;;;;;;14.59;82.34;98159.63;5084708;28;20047;-53
2021/05/14 00:10:28;;;;;;;32.25;22.15;;;;;;;14.62;81.67;98159.41;5118624;28;20433;-53
2021/05/14 00:12:54;;;;;;;27.27;17.77;;;;;;;14.62;81.73;98163.84;5118823;28;20057;-53
2021/05/14 00:15:20;;;;;;;25.98;18.63;;;;;;;14.63;81.56;98169.00;5119093;28;20078;-54
2021/05/14 00:17:46;;;;;;;23.17;16.30;;;;;;;14.66;81.55;98167.97;5118431;28;20445;-53
2021/05/14 00:20:12;;;;;;;25.63;15.55;;;;;;;14.69;80.99;98176.50;5118275;28;20062;-54
2021/05/14 00:22:38;;;;;;;26.00;19.42;;;;;;;14.75;81.06;98177.88;5118735;28;20062;-53
2021/05/14 00:25:05;;;;;;;27.58;19.83;;;;;;;14.79;80.86;98182.00;5118667;28;20463;-53
2021/05/14 00:27:31;;;;;;;30.13;20.17;;;;;;;14.81;80.94;98184.53;5118598;28;20044;-52
2021/05/14 00:29:57;;;;;;;23.63;15.77;;;;;;;14.84;80.92;98179.88;5118304;28;20497;-53
2021/05/14 00:32:22;;;;;;;23.20;17.40;;;;;;;14.89;80.68;98182.22;5117440;28;20070;-52
2021/05/14 00:34:48;;;;;;;24.55;16.58;;;;;;;14.94;80.23;98183.56;5118251;28;20468;-53
2021/05/14 00:37:14;;;;;;;24.73;17.80;;;;;;;14.94;80.92;98182.72;5118265;28;20056;-53
2021/05/14 00:39:39;;;;;;;24.90;18.17;;;;;;;14.91;80.70;98185.56;5117500;28;20055;-53
2021/05/14 00:42:05;;;;;;;29.42;20.08;;;;;;;14.86;80.65;98180.63;5117449;28;20074;-53
2021/05/14 00:44:36;;;;;;;30.52;20.88;;;;;;;14.90;80.95;98182.09;5118260;28;20070;-53
2021/05/14 00:47:07;;;;;;;27.75;19.77;;;;;;;14.91;80.87;98189.06;5117407;28;20040;-53
2021/05/14 00:49:33;;;;;;;23.55;16.42;;;;;;;14.92;80.87;98189.91;5101351;28;20473;-53
2021/05/14 00:51:58;;;;;;;27.42;17.73;;;;;;;14.93;80.43;98184.53;5117866;28;20096;-52
2021/05/14 00:54:28;;;;;;;26.95;17.85;;;;;;;14.94;80.45;98186.19;5117816;28;20361;-54
2021/05/14 00:56:54;;;;;;;25.10;17.75;;;;;;;14.92;80.81;98197.81;5117102;28;20051;-53
2021/05/14 00:59:19;;;;;;;26.40;17.70;;;;;;;14.94;80.64;98191.47;5117558;28;20116;-53
2021/05/14 01:01:45;;;;;;;27.38;19.33;;;;;;;14.95;80.51;98187.91;5116762;28;20183;-53
2021/05/14 01:04:11;;;;;;;24.45;18.33;;;;;;;14.94;80.55;98191.47;5118208;28;20050;-53
2021/05/14 01:06:37;;;;;;;24.40;17.60;;;;;;;14.98;80.36;98196.53;5117529;28;20358;-53
2021/05/14 01:09:03;;;;;;;25.00;18.42;;;;;;;14.96;80.80;98184.31;5117568;27;20032;-53
2021/05/14 01:11:29;;;;;;;28.02;19.38;;;;;;;14.93;80.73;98181.88;5116571;28;20048;-53
2021/05/14 01:13:56;;;;;;;25.88;19.52;;;;;;;14.96;80.48;98191.38;5116821;28;20048;-54
2021/05/14 01:16:23;;;;;;;26.98;19.00;;;;;;;14.99;80.37;98192.97;5117596;28;20047;-53
2021/05/14 01:18:50;;;;;;;28.80;19.33;;;;;;;14.92;80.60;98187.28;5117597;28;20116;-53
2021/05/14 01:21:15;;;;;;;27.90;18.70;;;;;;;14.90;80.34;98184.72;5099658;28;20097;-53
2021/05/14 01:23:41;;;;;;;22.58;17.25;;;;;;;14.90;80.18;98195.28;5117291;28;20422;-53
2021/05/14 01:26:12;;;;;;;26.45;19.38;;;;;;;14.90;80.14;98184.72;5116603;28;20154;-53
2021/05/14 01:28:37;;;;;;;24.50;17.95;;;;;;;14.84;80.60;98193.06;5116303;28;20062;-53
2021/05/14 01:31:03;;;;;;;23.83;17.73;;;;;;;14.87;80.31;98190.22;5117137;28;20074;-53
2021/05/14 01:33:29;;;;;;;28.70;17.27;;;;;;;14.84;80.63;98193.06;5116484;28;20052;-53
2021/05/14 01:35:54;;;;;;;24.65;17.05;;;;;;;14.89;80.29;98198.03;5116449;28;20342;-53
2021/05/14 01:38:20;;;;;;;22.90;16.90;;;;;;;14.87;80.07;98192.84;5116996;28;20039;-54
2021/05/14 01:40:46;;;;;;;25.35;17.02;;;;;;;14.79;80.31;98181.16;5117207;28;20047;-53
2021/05/14 01:43:12;;;;;;;21.08;16.27;;;;;;;14.85;80.14;98194.75;5117209;28;20364;-53
2021/05/14 01:45:37;;;;;;;21.45;15.80;;;;;;;14.89;80.12;98204.16;5117195;28;20066;-53
2021/05/14 01:48:03;;;;;;;25.00;18.65;;;;;;;14.86;80.22;98203.50;5117137;28;20043;-53
2021/05/14 01:50:29;;;;;;;22.95;16.67;;;;;;;14.88;80.36;98205.09;5116881;28;20118;-53
2021/05/14 01:52:55;;;;;;;24.70;17.17;;;;;;;14.89;80.11;98201.50;5117567;28;20063;-53
2021/05/14 01:55:21;;;;;;;23.23;16.52;;;;;;;14.88;80.12;98191.91;5116170;28;20047;-53
2021/05/14 01:57:46;;;;;;;24.23;17.83;;;;;;;14.87;80.18;98189.38;5116902;28;20047;-53
2021/05/14 02:00:13;;;;;;;26.80;17.00;;;;;;;14.80;79.92;98183.69;5115821;28;20039;-53
2021/05/14 02:02:39;;;;;;;24.00;17.00;;;;;;;14.83;80.13;98196.66;5082260;28;20047;-54
2021/05/14 02:05:05;;;;;;;23.67;17.20;;;;;;;14.82;80.15;98205.50;5116573;28;20052;-53
2021/05/14 02:07:31;;;;;;;25.65;17.45;;;;;;;14.76;80.42;98205.09;5099581;28;20074;-53
2021/05/14 02:09:57;;;;;;;24.92;18.17;;;;;;;14.82;80.22;98207.28;5116820;28;20441;-53
2021/05/14 02:12:23;;;;;;;22.33;16.30;;;;;;;14.82;80.42;98200.25;5115354;28;20046;-53
2021/05/14 02:14:49;;;;;;;25.95;16.10;;;;;;;14.88;80.12;98206.88;5116552;28;20036;-53
2021/05/14 02:17:15;;;;;;;27.83;17.27;;;;;;;14.91;80.07;98210.13;5115562;28;20046;-53
2021/05/14 02:19:40;;;;;;;25.05;17.80;;;;;;;14.82;80.52;98207.28;5116798;28;20047;-53
2021/05/14 02:22:06;;;;;;;25.73;17.30;;;;;;;14.83;80.46;98209.81;5116702;28;20104;-53
2021/05/14 02:24:32;;;;;;;28.48;18.98;;;;;;;14.78;80.63;98209.28;5116670;28;20100;-53
2021/05/14 02:26:58;;;;;;;27.02;18.45;;;;;;;14.82;80.14;98212.56;5116404;28;20047;-53
2021/05/14 02:29:23;;;;;;;27.13;18.23;;;;;;;14.86;80.23;98211.41;5115753;28;20053;-53
2021/05/14 02:31:49;;;;;;;26.27;18.38;;;;;;;14.85;80.03;98207.06;5116297;28;20044;-53
2021/05/14 02:34:15;;;;;;;28.05;19.30;;;;;;;14.52;79.51;98154.88;5116327;28;20044;-52
2021/05/14 02:36:40;;;;;;;23.05;18.00;;;;;;;14.77;79.81;98212.88;5117270;28;20066;-53
2021/05/14 02:39:07;;;;;;;27.10;17.50;;;;;;;14.77;80.08;98212.03;5116206;28;20047;-54
2021/05/14 02:41:33;;;;;;;25.50;17.17;;;;;;;14.73;80.14;98217.50;5116253;28;20058;-53
2021/05/14 02:43:59;;;;;;;21.17;15.07;;;;;;;14.77;79.89;98217.31;5116477;28;20047;-53
2021/05/14 02:46:25;;;;;;;23.58;15.68;;;;;;;14.80;79.80;98217.94;5116218;28;20044;-53
2021/05/14 02:48:50;;;;;;;19.33;14.52;;;;;;;14.83;79.08;98220.38;5116228;28;20042;-53
2021/05/14 02:51:16;;;;;;;22.60;16.30;;;;;;;14.83;79.27;98227.44;5116424;28;20060;-53
2021/05/14 02:53:42;;;;;;;23.02;16.08;;;;;;;14.83;79.20;98225.63;5116402;28;20370;-53
2021/05/14 02:56:08;;;;;;;26.00;16.42;;;;;;;14.82;78.92;98234.50;5116172;28;20406;-53
2021/05/14 02:58:33;;;;;;;25.45;17.75;;;;;;;14.82;78.92;98226.59;5115983;28;20040;-53
2021/05/14 03:00:59;;;;;;;35.10;21.40;;;;;;;14.83;78.92;98233.53;5116024;28;20131;-53
2021/05/14 03:03:25;;;;;;;28.48;18.05;;;;;;;14.81;79.27;98230.16;5116609;28;20040;-53
2021/05/14 03:05:51;;;;;;;24.88;17.52;;;;;;;14.79;79.60;98223.31;5115946;28;20051;-54
2021/05/14 03:08:16;;;;;;;30.95;19.40;;;;;;;14.71;79.87;98231.72;5116008;28;20044;-52
2021/05/14 03:10:42;;;;;;;25.95;17.33;;;;;;;14.78;79.49;98234.78;5115996;28;20043;-53
2021/05/14 03:13:08;;;;;;;26.27;17.42;;;;;;;14.74;79.68;98236.78;5115897;28;20051;-53
2021/05/14 03:15:34;;;;;;;26.08;18.00;;;;;;;14.76;79.55;98239.34;5115948;28;20044;-53
2021/05/14 03:17:59;;;;;;;24.10;17.83;;;;;;;14.76;79.70;98242.81;5116441;28;20040;-54
2021/05/14 03:20:25;;;;;;;27.40;18.08;;;;;;;14.76;79.96;98244.63;5115834;28;20104;-53
2021/05/14 03:22:51;;;;;;;25.95;17.90;;;;;;;14.82;79.60;98241.53;5116517;28;20043;-53
2021/05/14 03:25:16;;;;;;;27.15;16.90;;;;;;;14.78;79.44;98240.91;5119005;28;20139;-54
2021/05/14 03:27:42;;;;;;;23.52;16.05;;;;;;;14.82;79.38;98245.03;5118968;28;20414;-53
2021/05/14 03:30:08;;;;;;;25.50;17.02;;;;;;;14.86;79.09;98243.88;5119497;28;20407;-53
2021/05/14 03:32:34;;;;;;;25.42;18.05;;;;;;;14.86;78.59;98245.69;5119759;28;20043;-52
2021/05/14 03:35:00;;;;;;;21.20;14.65;;;;;;;14.87;78.82;98248.19;5119719;28;20150;-53
2021/05/14 03:37:26;;;;;;;27.48;18.13;;;;;;;14.93;78.88;98254.84;5119509;28;20040;-53
2021/05/14 03:39:53;;;;;;;27.67;18.02;;;;;;;14.91;79.04;98260.22;5119597;28;20057;-53
2021/05/14 03:42:23;;;;;;;24.33;16.20;;;;;;;14.94;78.83;98256.53;5119552;28;20123;-54
2021/05/14 03:44:52;;;;;;;23.55;16.48;;;;;;;15.02;78.58;98256.88;5119537;28;20051;-54
2021/05/14 03:47:18;;;;;;;23.65;16.35;;;;;;;15.04;78.53;98260.25;5119439;28;20048;-53
2021/05/14 03:49:44;;;;;;;22.25;15.90;;;;;;;15.03;78.58;98255.94;5119086;28;20140;-53
2021/05/14 03:52:11;;;;;;;25.30;17.30;;;;;;;15.02;78.47;98262.16;5119091;28;20044;-53
2021/05/14 03:54:37;;;;;;;22.75;15.65;;;;;;;14.96;78.41;98260.75;5119274;28;20089;-53
2021/05/14 03:57:03;;;;;;;25.30;15.80;;;;;;;14.96;78.63;98258.13;5119468;28;20040;-53
2021/05/14 03:59:29;;;;;;;30.15;18.63;;;;;;;14.91;78.88;98264.66;5119167;28;20461;-53
2021/05/14 04:01:55;;;;;;;25.65;16.60;;;;;;;14.89;79.24;98262.13;5118274;28;20062;-53
2021/05/14 04:04:22;;;;;;;23.05;15.90;;;;;;;14.92;79.11;98271.63;5118235;28;20051;-54
2021/05/14 04:06:49;;;;;;;29.15;17.63;;;;;;;14.92;78.94;98263.72;5118793;28;20039;-53
2021/05/14 04:09:18;;;;;;;24.65;16.85;;;;;;;14.94;78.58;98267.91;5117841;28;20047;-52
2021/05/14 04:14:33;;;;;;;24.15;16.05;;;;;;;15.04;77.95;98262.03;5118709;28;20449;-54
2021/05/14 04:17:02;;;;;;;22.05;14.88;;;;;;;15.05;77.41;98261.94;5118560;28;20096;-53
2021/05/14 04:19:28;;;;;;;23.30;15.48;;;;;;;15.14;77.03;98268.38;5118416;28;20436;-53
2021/05/14 04:21:54;;;;;;;24.58;16.08;;;;;;;15.18;76.59;98259.31;5118815;28;20078;-53
2021/05/14 04:24:21;;;;;;;26.42;16.73;;;;;;;15.13;76.61;98266.69;5118730;28;20085;-53
2021/05/14 04:26:50;;;;;;;24.75;15.77;;;;;;;15.09;76.51;98263.41;5100860;28;20100;-53
2021/05/14 04:29:16;;;;;;;24.98;15.40;;;;;;;15.05;76.77;98259.31;5118654;28;20108;-53
2021/05/14 04:31:43;;;;;;;24.33;15.57;;;;;;;15.12;76.49;98263.22;5118318;28;20044;-52
2021/05/14 04:34:10;;;;;;;24.10;16.00;;;;;;;15.11;76.56;98269.44;5117203;28;20035;-54
2021/05/14 04:36:36;;;;;;;24.58;15.70;;;;;;;15.09;76.37;98259.94;5118410;28;20047;-54
2021/05/14 04:39:02;;;;;;;22.75;15.45;;;;;;;15.09;76.46;98268.69;5118148;28;20441;-53
2021/05/14 04:41:28;;;;;;;26.63;16.65;;;;;;;15.02;76.29;98271.88;5118066;28;20048;-53
2021/05/14 04:43:54;;;;;;;21.08;14.43;;;;;;;15.02;76.23;98266.59;5118038;28;20077;-52
2021/05/14 04:46:19;;;;;;;18.92;12.25;;;;;;;15.02;76.54;98266.59;5117104;28;20104;-53
2021/05/14 04:48:45;;;;;;;27.98;14.77;;;;;;;15.04;76.24;98265.50;5118211;28;20100;-53
2021/05/14 04:51:11;;;;;;;22.17;14.18;;;;;;;15.01;76.65;98263.09;5117946;28;20040;-53
2021/05/14 04:53:37;;;;;;;24.65;16.00;;;;;;;15.02;76.85;98275.34;5118172;28;20056;-54
2021/05/14 04:56:04;;;;;;;20.05;13.07;;;;;;;15.07;76.79;98275.00;5117776;28;20048;-53
2021/05/14 04:58:30;;;;;;;23.23;14.30;;;;;;;15.09;76.39;98276.59;5117919;28;20054;-54
2021/05/14 05:00:55;;;;;;;25.08;15.45;;;;;;;15.04;76.48;98272.59;5118035;28;20035;-53
2021/05/14 05:03:21;;;;;;;19.42;14.38;;;;;;;14.98;76.31;98265.91;5117656;28;20396;-53
2021/05/14 05:05:48;;;;;;;17.52;11.05;;;;;;;15.13;76.70;98274.59;5100207;28;20046;-53
2021/05/14 05:08:14;;;;;;;20.42;12.75;;;;;;;15.24;76.21;98268.59;5117522;28;20448;-53
2021/05/14 05:10:40;;;;;;;18.38;12.88;;;;;;;15.32;75.82;98272.41;5117817;28;20039;-53
2021/05/14 05:13:06;;;;;;;18.77;13.73;;;;;;;15.23;75.54;98269.53;5117549;28;20040;-52
2021/05/14 05:15:31;;;;;;;21.92;13.10;;;;;;;15.28;76.06;98275.38;5117738;28;20043;-52
2021/05/14 05:17:57;;;;;;;19.40;12.40;;;;;;;15.33;76.13;98279.34;5117588;28;20051;-54
2021/05/14 05:20:23;;;;;;;20.35;12.27;;;;;;;15.18;76.20;98280.41;5117283;28;20357;-53
2021/05/14 05:22:49;;;;;;;20.15;12.57;;;;;;;15.25;76.27;98286.13;5117301;28;20043;-53
2021/05/14 05:25:15;;;;;;;17.40;11.57;;;;;;;15.28;75.83;98289.38;5117266;28;20051;-53
2021/05/14 05:27:41;;;;;;;18.00;12.02;;;;;;;15.26;75.70;98280.72;5116623;28;20043;-53
2021/05/14 05:30:07;;;;;;;16.10;11.02;;;;;;;15.28;75.92;98288.56;5117484;28;20052;-53
2021/05/14 05:32:33;;;;;;;19.02;12.57;;;;;;;15.32;75.62;98292.66;5117141;28;20039;-54
2021/05/14 05:34:59;;;;;;;16.05;12.23;;;;;;;15.23;75.45;98294.13;5117381;28;20062;-53
2021/05/14 05:37:25;;;;;;;15.25;11.40;;;;;;;15.28;75.22;98302.56;5117733;28;20562;-53
2021/05/14 05:39:50;;;;;;;16.67;11.18;;;;;;;15.30;75.05;98299.81;5117235;27;20050;-53
2021/05/14 05:42:16;;;;;;;17.38;11.88;;;;;;;15.36;74.39;98308.16;5099829;28;20436;-52
2021/05/14 05:44:42;;;;;;;12.88;9.50;;;;;;;15.37;74.46;98307.22;5116868;28;20452;-52
2021/05/14 05:47:07;;;;;;;17.17;11.15;;;;;;;15.28;74.75;98318.41;5116586;28;20051;-52
2021/05/14 05:49:33;;;;;;;18.55;11.10;;;;;;;15.27;74.42;98318.50;5116801;28;20361;-52
2021/05/14 05:51:59;;;;;;;21.05;10.68;;;;;;;15.09;75.21;98313.53;5117057;28;20047;-53
2021/05/14 05:54:25;;;;;;;17.88;10.35;;;;;;;15.09;75.50;98318.78;5117321;28;20063;-53
2021/05/14 05:56:55;;;;;;;14.68;9.95;;;;;;;15.03;75.90;98321.00;5116668;28;20044;-53
2021/05/14 05:59:21;;;;;;;16.95;10.93;;;;;;;14.99;76.38;98328.28;5116718;28;20055;-53
2021/05/14 06:01:47;;;;;;;17.17;10.13;;;;;;;14.95;75.94;98324.16;5116656;28;20053;-52
2021/05/14 06:04:12;;;;;;;16.00;10.68;;;;;;;14.97;76.01;98332.78;5117217;28;20054;-52
2021/05/14 06:06:38;;;;;;;15.35;8.85;;;;;;;14.92;76.46;98325.19;5116644;28;20402;-53
2021/05/14 06:09:04;;;;;;;16.67;11.07;;;;;;;14.97;76.18;98332.78;5116862;28;20334;-52
2021/05/14 06:11:30;;;;;;;14.23;9.90;;;;;;;14.99;75.31;98338.81;5116828;28;20062;-53
2021/05/14 06:13:55;;;;;;;13.05;9.80;;;;;;;15.05;75.41;98340.22;5117228;28;20364;-54
2021/05/14 06:16:21;;;;;;;13.90;9.50;;;;;;;15.08;75.47;98330.28;5116606;28;20369;-52
2021/05/14 06:18:54;;;;;;;12.82;8.95;;;;;;;15.11;75.57;98342.41;5116326;28;20039;-53
2021/05/14 06:21:19;;;;;;;12.90;9.18;;;;;;;15.11;75.57;98345.91;5116692;28;20143;-52
2021/05/14 06:23:45;;;;;;;12.85;8.75;;;;;;;15.16;74.99;98346.44;5116344;28;20365;-53
2021/05/14 06:26:11;;;;;;;14.52;9.43;;;;;;;15.11;75.01;98345.03;5116423;28;20039;-54
2021/05/14 06:28:37;;;;;;;11.75;8.35;;;;;;;15.15;74.96;98347.38;5116614;28;20072;-53
2021/05/14 06:31:02;;;;;;;13.30;8.80;;;;;;;15.20;74.69;98347.91;5116622;28;20062;-52
2021/05/14 06:33:28;;;;;;;13.10;9.00;;;;;;;15.22;74.84;98358.38;5116270;28;20495;-53
2021/05/14 06:35:56;;;;;;;10.85;8.27;;;;;;;15.33;74.13;98357.66;5115176;28;20062;-53
2021/05/14 06:38:23;;;;;;;12.15;8.40;;;;;;;15.27;73.45;98355.41;5116491;28;20036;-54
2021/05/14 06:40:49;;;;;;;13.10;8.88;;;;;;;15.32;72.89;98361.25;5116222;28;20353;-53
2021/05/14 06:43:14;;;;;;;11.73;8.98;;;;;;;15.22;72.76;98361.00;5116488;28;20055;-53
2021/05/14 06:45:40;;;;;;;11.80;7.93;;;;;;;15.24;72.95;98361.75;5116493;28;20438;-54
2021/05/14 06:48:07;;;;;;;10.85;7.93;;;;;;;15.27;73.01;98366.81;5116218;28;20062;-54
2021/05/14 06:50:34;;;;;;;10.07;8.15;;;;;;;15.34;72.73;98368.09;5116487;28;20361;-54
2021/05/14 06:53:04;;;;;;;9.00;7.80;;;;;;;15.36;71.70;98370.63;5116137;28;20032;-54
2021/05/14 06:55:30;;;;;;;11.90;7.10;;;;;;;15.37;71.71;98375.81;5116489;28;20047;-54
2021/05/14 06:57:56;;;;;;;10.20;6.90;;;;;;;15.44;71.90;98368.34;5115578;28;20043;-54
2021/05/14 07:00:21;;;;;;;11.40;7.97;;;;;;;15.61;71.81;98369.81;5119526;28;20360;-53
2021/05/14 07:02:48;;;;;;;11.55;6.95;;;;;;;15.86;70.73;98379.59;5119196;28;20134;-53
2021/05/14 07:05:14;;;;;;;9.32;6.75;;;;;;;15.86;70.22;98380.41;5120006;28;20047;-52
2021/05/14 07:07:40;;;;;;;8.90;7.70;;;;;;;15.91;70.30;98380.09;5120279;28;20050;-54
2021/05/14 07:10:07;;;;;;;12.15;6.50;;;;;;;15.96;70.52;98385.06;5120177;28;20047;-52
2021/05/14 07:12:34;;;;;;;9.50;7.68;;;;;;;16.02;70.15;98384.63;5119879;27;20060;-52
2021/05/14 07:15:01;;;;;;;13.80;8.57;;;;;;;16.11;69.74;98379.53;5120128;28;20047;-53
2021/05/14 07:17:26;;;;;;;13.05;9.13;;;;;;;16.23;69.22;98393.69;5119967;28;20101;-53
2021/05/14 07:19:52;;;;;;;14.73;9.15;;;;;;;16.26;69.02;98388.19;5119707;27;20056;-52
2021/05/14 07:22:18;;;;;;;13.27;8.50;;;;;;;16.32;68.95;98389.56;5119927;28;20338;-54
2021/05/14 07:24:44;;;;;;;12.75;9.32;;;;;;;16.36;68.70;98393.66;5119065;28;20047;-54
2021/05/14 07:27:10;;;;;;;13.32;9.88;;;;;;;16.36;68.85;98393.66;5119563;28;20063;-53
2021/05/14 07:29:35;;;;;;;16.60;10.90;;;;;;;16.38;68.07;98394.41;5119604;28;20092;-53
2021/05/14 07:32:01;;;;;;;17.27;10.15;;;;;;;16.45;68.07;98395.66;5119190;28;20040;-53
2021/05/14 07:34:27;;;;;;;13.75;10.43;;;;;;;16.52;67.54;98394.25;5118831;28;20070;-53
2021/05/14 07:36:53;;;;;;;20.52;12.82;;;;;;;16.52;67.14;98401.34;5119613;28;20398;-53
2021/05/14 07:39:18;;;;;;;26.17;15.63;;;;;;;16.60;67.27;98397.19;5119400;28;20485;-53
2021/05/14 07:41:44;;;;;;;20.35;11.98;;;;;;;16.68;67.28;98401.94;5118449;28;20040;-53
2021/05/14 07:44:10;;;;;;;13.32;10.63;;;;;;;16.68;66.86;98403.75;5119220;28;20058;-53
2021/05/14 07:46:36;;;;;;;21.10;11.02;;;;;;;16.52;66.69;98401.34;5119467;28;20138;-53
2021/05/14 07:49:01;;;;;;;14.27;9.85;;;;;;;16.59;67.14;98403.44;5119435;28;20452;-52
2021/05/14 07:51:27;;;;;;;14.50;9.75;;;;;;;16.64;67.67;98410.19;5119369;28;20051;-52
2021/05/14 07:53:53;;;;;;;17.00;11.95;;;;;;;16.67;67.71;98408.19;5119020;28;20047;-53
2021/05/14 07:56:19;;;;;;;15.52;10.75;;;;;;;16.59;67.93;98395.50;5118998;28;20461;-53
2021/05/14 07:58:45;;;;;;;11.63;9.07;;;;;;;16.69;67.62;98411.53;5101608;28;20044;-52
2021/05/14 08:01:11;;;;;;;13.40;8.57;;;;;;;16.65;67.53;98410.09;5119200;28;20054;-53
2021/05/14 08:03:37;;;;;;;15.45;9.30;;;;;;;16.63;67.43;98414.63;5119115;28;20126;-53
2021/05/14 08:06:03;;;;;;;10.70;8.18;;;;;;;16.57;67.75;98421.22;5118864;28;20077;-53
2021/05/14 08:08:32;;;;;;;14.63;9.10;;;;;;;16.51;68.04;98423.41;5118740;28;20043;-53
2021/05/14 08:10:58;;;;;;;11.20;8.35;;;;;;;16.55;68.13;98419.63;5119159;28;20048;-53
2021/05/14 08:13:24;;;;;;;13.15;8.85;;;;;;;16.43;67.88;98428.41;5117783;28;20108;-54
2021/05/14 08:15:50;;;;;;;10.25;8.15;;;;;;;16.51;68.11;98426.06;5118654;28;20044;-54
2021/05/14 08:18:17;;;;;;;15.27;8.43;;;;;;;16.54;67.91;98428.50;5118752;28;20043;-53
2021/05/14 08:20:44;;;;;;;26.17;13.55;;;;;;;16.66;67.52;98435.56;5118451;28;20071;-54
2021/05/14 08:23:10;;;;;;;22.15;13.85;;;;;;;16.69;67.24;98432.69;5118422;28;20051;-53
2021/05/14 08:25:36;;;;;;;14.93;11.00;;;;;;;16.66;66.92;98432.91;5118473;28;20036;-54
2021/05/14 08:28:02;;;;;;;10.80;8.43;;;;;;;16.74;66.34;98429.72;5118651;28;20059;-53
2021/05/14 08:30:28;;;;;;;10.77;8.88;;;;;;;16.87;66.61;98437.66;5118302;28;20051;-54
2021/05/14 08:32:54;;;;;;;12.27;9.40;;;;;;;16.93;65.70;98437.19;5118507;28;20062;-53
2021/05/14 08:35:20;;;;;;;13.73;10.50;;;;;;;17.06;65.42;98440.63;5118513;28;20062;-54
2021/05/14 08:37:47;;;;;;;10.25;8.55;;;;;;;17.07;65.17;98441.50;5118102;28;20082;-53
2021/05/14 08:40:13;;;;;;;11.52;9.00;;;;;;;17.03;65.25;98447.00;5118413;28;20135;-53
2021/05/14 08:42:39;;;;;;;11.63;8.85;;;;;;;17.07;65.17;98444.13;5118119;28;20043;-53
2021/05/14 08:45:07;;;;;;;17.58;12.73;;;;;;;17.09;64.91;98447.50;5117773;28;20044;-53
2021/05/14 08:47:33;;;;;;;11.98;9.65;;;;;;;16.92;65.42;98454.03;5118314;28;20050;-53
2021/05/14 08:49:59;;;;;;;12.43;9.05;;;;;;;16.82;65.58;98452.03;5117935;28;20047;-54
2021/05/14 08:52:26;;;;;;;10.50;9.40;;;;;;;16.85;65.33;98466.84;5117331;28;20058;-53
2021/05/14 08:54:57;;;;;;;13.85;9.90;;;;;;;16.89;65.56;98462.19;5117281;28;20047;-53
2021/05/14 08:57:22;;;;;;;24.25;16.23;;;;;;;16.90;65.21;98469.13;5117099;28;20047;-54
2021/05/14 08:59:51;;;;;;;15.52;11.45;;;;;;;16.94;65.01;98475.91;5118052;28;20047;-53
2021/05/14 09:02:17;;;;;;;14.90;10.85;;;;;;;16.94;64.70;98474.13;5117711;28;20043;-53
2021/05/14 09:04:42;;;;;;;11.93;9.85;;;;;;;16.97;65.06;98473.06;5117701;28;20039;-53
2021/05/14 09:07:26;;;;;;;10.13;9.05;;;;;;;16.92;64.73;98476.00;5117605;28;20044;-53
2021/05/14 09:10:05;;;;;;;13.90;9.98;;;;;;;17.01;64.62;98488.59;5118435;28;20063;-53
2021/05/14 09:12:35;;;;;;;11.05;9.27;;;;;;;16.84;65.03;98488.13;5117249;28;20051;-53
2021/05/14 09:15:34;;;;;;;13.52;10.82;;;;;;;17.00;64.00;98488.72;5117771;28;20425;-53
2021/05/14 09:18:19;;;;;;;14.15;9.27;;;;;;;17.01;64.46;98493.03;5116814;28;20051;-53
2021/05/14 09:20:55;;;;;;;10.00;8.40;;;;;;;17.09;64.44;98493.31;5116654;28;20108;-53
2021/05/14 09:23:25;;;;;;;21.05;12.63;;;;;;;17.29;64.83;98499.81;5116533;28;20422;-53
2021/05/14 09:25:55;;;;;;;14.20;9.82;;;;;;;17.48;64.25;98499.28;5117368;28;20449;-53
2021/05/14 09:28:38;;;;;;;18.13;12.23;;;;;;;17.69;62.31;98504.81;5116699;28;20120;-53
2021/05/14 09:31:06;;;;;;;12.40;8.38;;;;;;;17.69;62.35;98504.81;5117493;27;20104;-53
2021/05/14 09:33:33;;;;;;;10.35;7.97;;;;;;;17.70;62.32;98507.31;5117393;28;20104;-53
2021/05/14 09:35:59;;;;;;;12.25;8.60;;;;;;;17.72;61.79;98494.81;5116945;28;20057;-53
2021/05/14 09:38:25;;;;;;;13.45;8.77;;;;;;;17.79;61.36;98513.78;5117002;28;20051;-53
2021/05/14 09:40:51;;;;;;;8.65;6.97;;;;;;;17.59;61.79;98515.22;5117310;28;20078;-53
2021/05/14 09:43:17;;;;;;;8.90;6.60;;;;;;;17.64;62.00;98512.22;5117240;28;20074;-53
2021/05/14 09:45:43;;;;;;;7.72;6.38;;;;;;;17.65;61.86;98509.47;5102258;28;20044;-53
2021/05/14 09:48:16;;;;;;;7.63;6.68;;;;;;;17.43;62.36;98510.22;5078355;28;20062;-53
2021/05/14 09:50:42;;;;;;;;;;;;;;;17.21;62.47;98518.88;5096198;28;20051;-53
2021/05/14 09:53:10;;;;;;;8.30;6.97;;;;;;;17.31;63.03;98518.22;5096451;28;20251;-53
2021/05/14 09:55:37;;;;;;;8.65;5.80;;;;;;;17.31;63.26;98513.75;5096438;28;20044;-53
2021/05/14 09:58:13;;;;;;;8.52;5.70;;;;;;;17.40;62.94;98523.69;5095810;28;20364;-53
2021/05/14 10:00:39;;;;;;;8.75;6.25;;;;;;;17.35;62.69;98524.97;5096347;28;20036;-54
2021/05/14 10:03:05;;;;;;;10.88;7.43;;;;;;;17.22;62.91;98523.22;5095396;28;20113;-53
2021/05/14 10:05:30;;;;;;;11.43;8.65;;;;;;;17.22;62.97;98523.22;5095307;28;20062;-53
2021/05/14 10:08:01;;;;;;;7.55;5.43;;;;;;;17.07;63.86;98526.97;5095803;28;20048;-53
2021/05/14 10:10:27;;;;;;;7.50;5.25;;;;;;;17.02;63.69;98519.34;5096295;28;20448;-53
2021/05/14 10:12:52;;;;;;;7.43;5.22;;;;;;;17.01;64.24;98530.06;5095594;28;20055;-52
2021/05/14 10:15:19;;;;;;;15.40;8.65;;;;;;;16.98;64.67;98531.13;5062130;28;20415;-53
2021/05/14 10:17:48;;;;;;;6.97;4.85;;;;;;;17.01;64.27;98533.53;5096457;28;20139;-53
2021/05/14 10:20:18;;;;;;;7.30;4.72;;;;;;;16.95;64.61;98535.78;5096167;28;20076;-52
2021/05/14 10:22:45;;;;;;;6.53;4.57;;;;;;;16.90;64.39;98538.75;5095538;28;20048;-53
2021/05/14 10:25:13;;;;;;;5.57;3.80;;;;;;;16.95;64.75;98538.44;5096329;28;20080;-54
2021/05/14 10:27:46;;;;;;;5.95;4.05;;;;;;;17.06;64.84;98535.84;5096043;28;20048;-53
2021/05/14 10:30:13;;;;;;;5.43;3.40;;;;;;;17.02;64.08;98537.88;5095515;28;20040;-52
2021/05/14 10:32:47;;;;;;;5.93;3.30;;;;;;;17.09;63.88;98537.44;5079975;28;20067;-53
2021/05/14 10:35:15;;;;;;;4.07;2.90;;;;;;;16.94;64.52;98545.53;5100477;28;20048;-54
2021/05/14 10:37:54;;;;;;;4.15;2.67;;;;;;;17.03;64.89;98547.50;5100298;28;20048;-53
2021/05/14 10:40:32;;;;;;;3.63;2.65;;;;;;;17.12;64.75;98548.63;5100076;28;20059;-53
2021/05/14 10:43:06;;;;;;;5.43;2.92;;;;;;;17.12;64.23;98551.28;5100071;28;20051;-53
2021/05/14 10:45:40;;;;;;;5.15;3.40;;;;;;;17.05;64.46;98552.69;5100344;28;20040;-53
2021/05/14 10:48:21;;;;;;;4.60;3.13;;;;;;;16.94;65.51;98558.75;5100510;28;20322;-53
2021/05/14 10:50:53;;;;;;;4.95;3.15;;;;;;;16.70;67.04;98563.91;5099178;28;20105;-52
2021/05/14 10:53:19;;;;;;;8.05;4.10;;;;;;;16.72;66.92;98555.88;5099245;28;20441;-52
2021/05/14 10:55:45;;;;;;;6.45;3.53;;;;;;;16.62;67.08;98557.47;5099795;28;20113;-53
2021/05/14 10:58:45;;;;;;;5.78;3.72;;;;;;;16.70;66.82;98557.78;5098837;28;20039;-53
2021/05/14 11:01:31;;;;;;;3.83;2.92;;;;;;;16.58;66.69;98562.97;5099967;28;20082;-52
2021/05/14 11:03:57;;;;;;;4.68;3.70;;;;;;;16.67;66.87;98563.28;5100012;28;20043;-52
2021/05/14 11:06:23;;;;;;;7.57;3.13;;;;;;;16.65;67.02;98570.50;5099888;28;20059;-53
2021/05/14 11:09:05;;;;;;;6.70;3.42;;;;;;;16.71;65.80;98570.06;5098936;28;20115;-53
2021/05/14 11:11:31;;;;;;;4.60;3.70;;;;;;;16.71;65.78;98572.72;5098971;28;20048;-52
2021/05/14 11:14:14;;;;;;;8.02;4.97;;;;;;;16.86;64.93;98573.44;5099572;28;20057;-53
2021/05/14 11:16:40;;;;;;;11.32;6.40;;;;;;;16.75;65.11;98576.84;5099063;28;20040;-53
2021/05/14 11:19:13;;;;;;;5.75;3.70;;;;;;;16.64;64.48;98572.28;5099559;28;20148;-53
2021/05/14 11:22:14;;;;;;;3.22;2.83;;;;;;;16.69;64.21;98580.72;5099517;28;20461;-53
2021/05/14 11:24:50;;;;;;;10.48;7.88;;;;;;;16.65;64.19;98578.41;5099734;28;20043;-53